createdAt,value
2018-10-06T00:03:56.164Z,12.10
2018-10-06T00:08:52.184Z,12.10
2018-10-06T00:13:48.737Z,12.00
2018-10-06T00:18:46.621Z,12.00
2018-10-06T00:21:14.594Z,12.00
2018-10-06T00:23:42.828Z,11.90
2018-10-06T00:26:10.870Z,11.90
2018-10-06T00:31:07.036Z,11.80
2018-10-06T00:33:35.435Z,11.80
2018-10-06T00:36:03.751Z,11.70
2018-10-06T00:38:33.048Z,11.70
2018-10-06T00:43:29.220Z,11.80
2018-10-06T00:45:57.288Z,11.80
2018-10-06T00:48:25.298Z,11.80
2018-10-06T00:53:21.427Z,11.80
2018-10-06T00:55:51.684Z,11.80
2018-10-06T00:58:19.735Z,11.70
2018-10-06T01:00:47.823Z,11.70
2018-10-06T01:03:15.768Z,11.70
2018-10-06T01:05:44.072Z,11.70
2018-10-06T01:08:12.331Z,11.70
2018-10-06T01:10:40.397Z,11.70
2018-10-06T01:13:08.484Z,11.70
2018-10-06T01:15:36.540Z,11.70
2018-10-06T01:18:04.631Z,12.00
2018-10-06T01:20:32.699Z,12.00
2018-10-06T01:27:56.900Z,11.90
2018-10-06T01:30:24.999Z,11.70
2018-10-06T01:35:21.180Z,11.70
2018-10-06T01:37:49.683Z,11.90
2018-10-06T01:40:17.915Z,11.90
2018-10-06T01:42:45.971Z,11.80
2018-10-06T01:47:41.923Z,12.00
2018-10-06T01:52:38.055Z,11.80
2018-10-06T01:55:06.327Z,11.90
2018-10-06T01:57:34.396Z,11.80
2018-10-06T02:02:30.532Z,11.90
2018-10-06T02:04:58.678Z,11.70
2018-10-06T02:07:26.972Z,11.60
2018-10-06T02:09:54.952Z,11.40
2018-10-06T02:12:23.100Z,11.40
2018-10-06T02:17:19.316Z,11.60
2018-10-06T02:19:47.308Z,11.60
2018-10-06T02:22:15.380Z,11.50
2018-10-06T02:27:11.524Z,11.30
2018-10-06T02:29:39.625Z,11.20
2018-10-06T02:32:07.787Z,11.00
2018-10-06T02:37:03.827Z,11.00
2018-10-06T02:39:31.905Z,11.10
2018-10-06T02:42:00.281Z,11.20
2018-10-06T02:44:29.256Z,11.20
2018-10-06T02:46:57.473Z,11.10
2018-10-06T02:49:25.832Z,11.20
2018-10-06T02:56:49.988Z,11.00
2018-10-06T02:59:18.411Z,11.00
2018-10-06T03:04:14.495Z,10.70
2018-10-06T03:09:11.016Z,10.50
2018-10-06T03:11:39.273Z,10.50
2018-10-06T03:14:07.374Z,10.40
2018-10-06T03:16:35.400Z,10.40
2018-10-06T03:19:03.480Z,10.30
2018-10-06T03:21:31.555Z,10.30
2018-10-06T03:24:01.781Z,10.20
2018-10-06T03:26:29.907Z,10.10
2018-10-06T03:28:57.976Z,10.00
2018-10-06T03:31:26.053Z,10.00
2018-10-06T03:33:54.068Z,9.90
2018-10-06T03:36:22.464Z,9.90
2018-10-06T03:38:50.508Z,10.00
2018-10-06T03:43:46.719Z,9.90
2018-10-06T03:46:16.002Z,9.90
2018-10-06T03:51:12.453Z,9.80
2018-10-06T03:53:40.845Z,9.80
2018-10-06T03:56:09.845Z,9.80
2018-10-06T03:58:38.272Z,9.70
2018-10-06T04:03:34.944Z,9.60
2018-10-06T04:06:03.284Z,9.70
2018-10-06T04:08:31.797Z,9.60
2018-10-06T04:11:00.153Z,9.60
2018-10-06T04:15:56.348Z,9.60
2018-10-06T04:20:52.264Z,9.60
2018-10-06T04:23:20.238Z,9.60
2018-10-06T04:25:48.745Z,9.80
2018-10-06T04:28:17.239Z,9.80
2018-10-06T04:30:45.571Z,9.80
2018-10-06T04:33:14.336Z,9.90
2018-10-06T04:35:42.834Z,9.90
2018-10-06T04:38:11.978Z,9.90
2018-10-06T04:40:40.280Z,10.20
2018-10-06T04:43:08.496Z,10.30
2018-10-06T04:45:36.848Z,10.20
2018-10-06T04:48:06.262Z,10.10
2018-10-06T04:50:35.767Z,10.00
2018-10-06T04:55:32.436Z,10.20
2018-10-06T04:58:01.215Z,10.20
2018-10-06T05:00:29.592Z,9.80
2018-10-06T05:07:56.216Z,9.70
2018-10-06T05:12:51.958Z,9.80
2018-10-06T05:15:20.121Z,9.90
2018-10-06T05:17:48.108Z,10.10
2018-10-06T05:22:43.971Z,10.50
2018-10-06T05:30:08.797Z,10.70
2018-10-06T05:32:37.449Z,10.80
2018-10-06T05:35:06.025Z,10.90
2018-10-06T05:37:34.400Z,11.10
2018-10-06T05:40:02.929Z,11.40
2018-10-06T05:42:31.280Z,12.00
2018-10-06T05:44:59.587Z,12.50
2018-10-06T05:47:27.889Z,12.80
2018-10-06T05:49:55.993Z,13.00
2018-10-06T05:52:24.002Z,13.00
2018-10-06T05:54:52.052Z,13.10
2018-10-06T05:59:48.005Z,13.50
2018-10-06T06:04:44.836Z,14.40
2018-10-06T06:09:41.675Z,15.80
2018-10-06T06:12:10.065Z,16.40
2018-10-06T06:14:38.614Z,17.20
2018-10-06T06:17:08.305Z,17.80
2018-10-06T06:19:37.215Z,18.60
2018-10-06T06:22:05.388Z,19.30
2018-10-06T06:24:33.411Z,19.80
2018-10-06T06:27:01.494Z,20.50
2018-10-06T06:29:29.476Z,21.00
2018-10-06T06:31:57.500Z,20.70
2018-10-06T06:34:26.092Z,21.30
2018-10-06T06:36:54.499Z,22.00
2018-10-06T06:41:51.120Z,23.00
2018-10-06T06:44:19.681Z,23.60
2018-10-06T06:46:48.387Z,24.40
2018-10-06T06:51:44.939Z,24.60
2018-10-06T06:56:41.554Z,24.90
2018-10-06T06:59:09.721Z,25.50
2018-10-06T07:01:38.315Z,25.90
2018-10-06T07:04:06.524Z,26.60
2018-10-06T07:09:03.092Z,27.80
2018-10-06T07:16:28.361Z,28.30
2018-10-06T07:18:56.933Z,29.00
2018-10-06T07:21:26.148Z,29.20
2018-10-06T07:26:24.096Z,28.40
2018-10-06T07:28:52.092Z,28.30
2018-10-06T07:31:20.064Z,27.50
2018-10-06T07:38:43.699Z,29.50
2018-10-06T07:41:11.750Z,29.90
2018-10-06T07:51:05.832Z,30.60
2018-10-06T07:53:34.253Z,30.30
2018-10-06T07:56:03.020Z,30.50
2018-10-06T07:58:31.492Z,28.20
2018-10-06T08:00:59.903Z,28.80
2018-10-06T08:03:28.302Z,29.90
2018-10-06T08:05:56.386Z,30.70
2018-10-06T08:13:20.450Z,31.20
2018-10-06T08:15:48.915Z,31.50
2018-10-06T08:28:11.319Z,30.80
2018-10-06T08:30:39.828Z,31.00
2018-10-06T08:33:08.183Z,31.20
2018-10-06T08:35:36.684Z,31.20
2018-10-06T08:40:32.717Z,30.90
2018-10-06T08:43:00.777Z,30.40
2018-10-06T08:45:28.996Z,31.00
2018-10-06T08:47:57.022Z,31.50
2018-10-06T08:50:25.048Z,31.30
2018-10-06T08:55:21.179Z,30.70
2018-10-06T09:00:17.765Z,31.80
2018-10-06T09:05:14.512Z,33.60
2018-10-06T09:07:42.930Z,33.30
2018-10-06T09:10:12.408Z,33.60
2018-10-06T09:12:40.999Z,34.00
2018-10-06T09:15:09.726Z,34.20
2018-10-06T09:17:37.853Z,34.40
2018-10-06T09:20:05.848Z,34.90
2018-10-06T09:22:34.337Z,35.00
2018-10-06T09:25:02.331Z,34.80
2018-10-06T09:32:26.811Z,35.50
2018-10-06T09:37:24.485Z,35.10
2018-10-06T09:47:08.785Z,35.50
2018-10-06T09:49:37.680Z,34.10
2018-10-06T09:52:06.285Z,32.20
2018-10-06T09:54:34.368Z,32.70
2018-10-06T09:57:03.281Z,32.50
2018-10-06T09:59:31.565Z,33.00
2018-10-06T10:09:29.505Z,33.60
2018-10-06T10:11:58.193Z,33.70
2018-10-06T10:19:23.063Z,35.30
2018-10-06T10:21:51.710Z,35.40
2018-10-06T10:24:20.180Z,35.60
2018-10-06T10:26:48.865Z,34.80
2018-10-06T10:29:17.163Z,34.00
2018-10-06T10:31:45.457Z,32.70
2018-10-06T10:34:13.948Z,33.50
2018-10-06T10:36:42.422Z,33.30
2018-10-06T10:39:10.412Z,32.80
2018-10-06T10:44:06.324Z,33.90
2018-10-06T10:46:34.275Z,33.80
2018-10-06T10:49:02.323Z,33.30
2018-10-06T10:51:30.303Z,32.30
2018-10-06T10:53:58.724Z,31.70
2018-10-06T10:56:27.119Z,31.10
2018-10-06T10:58:56.304Z,30.60
2018-10-06T11:06:21.252Z,30.00
2018-10-06T11:11:18.912Z,28.60
2018-10-06T11:13:46.932Z,28.80
2018-10-06T11:16:14.948Z,28.60
2018-10-06T11:21:10.930Z,29.20
2018-10-06T11:23:38.919Z,29.30
2018-10-06T11:26:08.952Z,29.40
2018-10-06T11:28:37.802Z,29.30
2018-10-06T11:31:06.397Z,29.20
2018-10-06T11:33:34.853Z,29.10
2018-10-06T11:36:03.405Z,29.30
2018-10-06T11:38:31.712Z,29.00
2018-10-06T11:40:59.991Z,29.20
2018-10-06T11:43:28.384Z,29.30
2018-10-06T11:45:56.431Z,29.30
2018-10-06T11:53:20.000Z,28.80
2018-10-06T11:55:47.979Z,28.70
2018-10-06T11:58:16.252Z,27.60
2018-10-06T12:00:44.299Z,27.30
2018-10-06T12:05:41.358Z,27.30
2018-10-06T12:08:10.216Z,27.60
2018-10-06T12:10:38.780Z,27.90
2018-10-06T12:13:07.115Z,27.70
2018-10-06T12:15:36.022Z,27.60
2018-10-06T12:18:04.443Z,27.60
2018-10-06T12:20:33.165Z,27.70
2018-10-06T12:23:01.124Z,27.90
2018-10-06T12:25:29.089Z,27.70
2018-10-06T12:27:57.107Z,27.40
2018-10-06T12:30:25.173Z,27.30
2018-10-06T12:32:53.156Z,27.30
2018-10-06T12:35:22.689Z,27.10
2018-10-06T12:37:51.430Z,27.30
2018-10-06T12:40:20.623Z,27.60
2018-10-06T12:42:49.038Z,27.60
2018-10-06T12:55:09.506Z,26.80
2018-10-06T12:57:37.803Z,27.10
2018-10-06T13:00:06.117Z,27.10
2018-10-06T13:02:34.636Z,26.90
2018-10-06T13:07:32.373Z,26.30
2018-10-06T13:14:57.265Z,26.50
2018-10-06T13:19:53.839Z,26.40
2018-10-06T13:22:22.619Z,26.40
2018-10-06T13:24:51.105Z,26.00
2018-10-06T13:27:19.547Z,26.00
2018-10-06T13:29:48.581Z,26.00
2018-10-06T13:34:44.287Z,25.40
2018-10-06T13:37:13.164Z,25.20
2018-10-06T13:39:41.653Z,25.10
2018-10-06T13:42:10.084Z,25.10
2018-10-06T13:44:38.809Z,25.10
2018-10-06T13:47:07.277Z,25.10
2018-10-06T13:49:36.254Z,24.90
2018-10-06T13:52:04.736Z,24.90
2018-10-06T14:01:57.223Z,24.40
2018-10-06T14:04:25.324Z,24.30
2018-10-06T14:06:53.422Z,24.30
2018-10-06T14:09:21.367Z,24.20
2018-10-06T14:11:49.383Z,24.10
2018-10-06T14:14:18.008Z,24.10
2018-10-06T14:19:15.973Z,24.00
2018-10-06T14:21:44.353Z,23.80
2018-10-06T14:24:12.637Z,23.70
2018-10-06T14:26:41.085Z,23.60
2018-10-06T14:29:09.463Z,23.60
2018-10-06T14:34:06.306Z,23.30
2018-10-06T14:36:34.344Z,23.20
2018-10-06T14:39:03.236Z,23.20
2018-10-06T14:41:31.332Z,23.20
2018-10-06T14:43:59.989Z,23.30
2018-10-06T14:46:28.386Z,23.40
2018-10-06T14:53:53.717Z,23.00
2018-10-06T14:56:22.183Z,22.90
2018-10-06T14:58:50.642Z,22.90
2018-10-06T15:01:18.839Z,22.80
2018-10-06T15:06:15.607Z,22.80
2018-10-06T15:08:43.596Z,22.70
2018-10-06T15:16:07.276Z,22.10
2018-10-06T15:21:02.972Z,21.60
2018-10-06T15:23:30.981Z,21.50
2018-10-06T15:25:58.976Z,21.40
2018-10-06T15:28:27.427Z,21.20
2018-10-06T15:33:24.899Z,21.00
2018-10-06T15:35:53.863Z,20.80
2018-10-06T15:38:22.353Z,20.70
2018-10-06T15:40:50.876Z,20.70
2018-10-06T15:43:19.324Z,20.60
2018-10-06T15:45:47.766Z,20.40
2018-10-06T15:48:16.059Z,20.30
2018-10-06T15:50:44.121Z,20.20
2018-10-06T15:53:12.167Z,20.00
2018-10-06T15:55:40.212Z,19.90
2018-10-06T16:03:04.532Z,19.70
2018-10-06T16:05:32.496Z,19.70
2018-10-06T16:08:01.016Z,19.80
2018-10-06T16:10:29.014Z,19.70
2018-10-06T16:12:57.061Z,19.50
2018-10-06T16:17:53.892Z,19.20
2018-10-06T16:20:21.954Z,19.10
2018-10-06T16:25:17.844Z,19.10
2018-10-06T16:30:14.152Z,18.90
2018-10-06T16:32:42.663Z,18.80
2018-10-06T16:42:34.080Z,18.20
2018-10-06T16:45:02.119Z,18.10
2018-10-06T16:47:30.080Z,18.10
2018-10-06T16:49:58.147Z,18.00
2018-10-06T16:52:26.173Z,18.00
2018-10-06T16:54:54.217Z,17.90
2018-10-06T16:57:22.293Z,17.80
2018-10-06T16:59:50.270Z,17.70
2018-10-06T17:02:18.634Z,17.60
2018-10-06T17:04:46.731Z,17.50
2018-10-06T17:07:15.099Z,17.40
2018-10-06T17:09:43.114Z,17.20
2018-10-06T17:12:11.145Z,17.20
2018-10-06T17:17:07.179Z,17.00
2018-10-06T17:22:02.955Z,16.80
2018-10-06T17:24:31.417Z,16.80
2018-10-06T17:26:59.395Z,16.70
2018-10-06T17:29:27.437Z,16.60
2018-10-06T17:31:55.644Z,16.50
2018-10-06T17:34:24.014Z,16.50
2018-10-06T17:36:52.076Z,16.30
2018-10-06T17:39:20.165Z,16.20
2018-10-06T17:41:48.169Z,16.10
2018-10-06T17:44:16.315Z,16.10
2018-10-06T17:49:12.283Z,15.90
2018-10-06T17:51:40.636Z,15.90
2018-10-06T17:54:09.207Z,15.80
2018-10-06T17:56:37.205Z,15.70
2018-10-06T17:59:05.278Z,15.70
2018-10-06T18:08:57.408Z,15.40
2018-10-06T18:11:25.670Z,15.40
2018-10-06T18:13:53.683Z,15.40
2018-10-06T18:16:21.924Z,15.40
2018-10-06T18:18:49.876Z,15.40
2018-10-06T18:21:17.987Z,15.20
2018-10-06T18:26:15.037Z,15.10
2018-10-06T18:28:43.745Z,15.00
2018-10-06T18:31:11.709Z,15.10
2018-10-06T18:33:39.693Z,15.00
2018-10-06T18:36:08.012Z,14.80
2018-10-06T18:38:36.532Z,14.90
2018-10-06T18:41:04.742Z,14.70
2018-10-06T18:48:28.331Z,14.60
2018-10-06T18:55:51.868Z,14.30
2018-10-06T18:58:19.905Z,14.30
2018-10-06T19:03:15.884Z,14.30
2018-10-06T19:05:43.821Z,14.20
2018-10-06T19:08:11.955Z,14.00
2018-10-06T19:10:40.394Z,14.00
2018-10-06T19:13:08.351Z,14.00
2018-10-06T19:18:04.216Z,14.00
2018-10-06T19:20:32.193Z,14.00
2018-10-06T19:23:00.343Z,13.90
2018-10-06T19:25:28.391Z,13.90
2018-10-06T19:27:57.474Z,13.80
2018-10-06T19:32:53.726Z,13.80
2018-10-06T19:35:21.680Z,13.70
2018-10-06T19:40:17.508Z,13.60
2018-10-06T19:42:45.531Z,13.50
2018-10-06T19:45:13.552Z,13.40
2018-10-06T19:47:41.546Z,13.40
2018-10-06T19:50:10.139Z,13.30
2018-10-06T20:00:01.820Z,13.30
2018-10-06T20:02:29.787Z,13.20
2018-10-06T20:04:58.155Z,13.20
2018-10-06T20:09:53.975Z,13.20
2018-10-06T20:14:49.755Z,13.20
2018-10-06T20:17:17.775Z,13.20
2018-10-06T20:22:13.738Z,13.10
2018-10-06T20:24:41.784Z,13.10
2018-10-06T20:32:06.090Z,13.10
2018-10-06T20:34:34.157Z,13.10
2018-10-06T20:37:02.223Z,13.00
2018-10-06T20:39:30.193Z,13.00
2018-10-06T20:41:58.484Z,12.90
2018-10-06T20:44:26.431Z,12.80
2018-10-06T20:46:54.425Z,12.80
2018-10-06T20:49:22.507Z,12.80
2018-10-06T20:51:50.764Z,12.70
2018-10-06T20:56:46.762Z,12.90
2018-10-06T20:59:15.236Z,12.90
2018-10-06T21:06:38.940Z,12.70
2018-10-06T21:09:10.188Z,12.80
2018-10-06T21:11:38.280Z,12.80
2018-10-06T21:14:06.406Z,12.70
2018-10-06T21:16:34.799Z,12.70
2018-10-06T21:19:02.794Z,12.60
2018-10-06T21:21:30.778Z,12.60
2018-10-06T21:23:58.763Z,12.60
2018-10-06T21:26:27.104Z,12.60
2018-10-06T21:28:56.342Z,12.60
2018-10-06T21:31:25.181Z,12.60
2018-10-06T21:33:53.415Z,12.50
2018-10-06T21:36:21.413Z,12.50
2018-10-06T21:38:49.551Z,12.40
2018-10-06T21:41:17.509Z,12.40
2018-10-06T21:43:45.476Z,12.30
2018-10-06T21:46:14.024Z,12.30
2018-10-06T21:53:37.797Z,12.40
2018-10-06T21:56:05.823Z,12.30
2018-10-06T21:58:33.815Z,12.20
2018-10-06T22:01:07.319Z,12.20
2018-10-06T22:03:35.360Z,12.30
2018-10-06T22:06:03.512Z,12.20
2018-10-06T22:08:31.606Z,12.20
2018-10-06T22:10:59.644Z,12.20
2018-10-06T22:13:27.971Z,12.40
2018-10-06T22:15:56.063Z,12.30
2018-10-06T22:18:24.079Z,12.30
2018-10-06T22:20:52.111Z,12.30
2018-10-06T22:23:20.120Z,12.10
2018-10-06T22:25:48.522Z,12.20
2018-10-06T22:28:16.759Z,12.20
2018-10-06T22:30:44.715Z,12.00
2018-10-06T22:35:40.676Z,12.00
2018-10-06T22:38:08.643Z,12.00
2018-10-06T22:43:04.665Z,12.20
2018-10-06T22:45:32.704Z,12.20
2018-10-06T22:48:00.724Z,12.20
2018-10-06T22:50:28.722Z,12.20
2018-10-06T22:52:56.841Z,12.00
2018-10-06T22:55:25.069Z,11.90
2018-10-06T22:57:53.001Z,12.00
2018-10-06T23:00:21.100Z,11.90
2018-10-06T23:02:49.054Z,11.90
2018-10-06T23:05:17.229Z,11.90
2018-10-06T23:07:45.283Z,11.80
2018-10-06T23:10:13.294Z,11.80
2018-10-06T23:12:41.505Z,11.90
2018-10-06T23:17:37.384Z,11.90
2018-10-06T23:27:28.839Z,11.90
2018-10-06T23:29:56.912Z,11.80
2018-10-06T23:32:24.881Z,11.80
2018-10-06T23:34:52.875Z,11.80
2018-10-06T23:37:20.912Z,11.80
2018-10-06T23:39:49.269Z,11.80
2018-10-06T23:42:17.276Z,11.80
2018-10-06T23:44:45.219Z,11.80
2018-10-06T23:47:13.276Z,11.80
2018-10-06T23:52:09.324Z,11.60
2018-10-06T23:54:38.344Z,11.60
2018-10-06T23:57:06.313Z,11.60
